Strona główna
METAR-TAF:

METAR-TAF

Lotnisko :

Port lotniczy Pointe-Noire

Pointe-Noire, Kongo

Szerokość geograficzna: 04-49S, Długość geograficzna: 011-54E, wysokość: 17 m

Aktualna obserwacja pogody

Raport powstał 6 godziny i 47 minut temu, godzina 18:00 UTC
Wiatr 8 kt od południe
Temperatura 24°C
Wilgotność 94%
Ciśnienie 1010 hPa
Widzialność: 8000 m
Rozproszone chmury na wysokości 800 ft
Rozproszone chmury na wysokości 2300 ft

METAR: FCPP 251800Z 19008KT 8000 SCT008 SCT023 24/23 Q1010 NOSIG

czas: 01:47 (00:47 UTC)

Prognoza

Raport powstał 1 godzina i 47 minut temu, godzina 23:00 UTC
Prognoza ważna od 26 godzina 00 UTC do 26 godzina 24 UTC
Wiatr 5 kt od południowo-południowy zachód
Widzialność: 8000 m
Rozproszone chmury na wysokości 2000 ft

TAF: FCPP 252300Z 2600/2624 20005KT 8000 SCT020

Obserwacja i prognoza pogody dla ponad 4000 lotnisk (raport METAR i TAF).

Dostępne stacje oznaczono żółtymi i czerwonymi punktami na mapie.

Najedź kursorem aby zobaczyć nazwę stacji.

Kliknij aby zobaczyć obserwacje i prognozy pogody.

Aby zmienić mapę: kliknij na zielony przycisk z czarnym krzyżykiem, aby powiększyć; na zielony przycisk z myślnikiem, aby pomniejszyć; na zielone strzałki, aby przejść do map sąsiednich.


METAR-TAF: